sensor_id;sensor_type;location;lat;lon;timestamp;P1;durP1;ratioP1;P2;durP2;ratioP2
55684;SDS011;41883;49.544;8.646;2022-12-19T00:00:45;44.08;;;22.45;;
55684;SDS011;41883;49.544;8.646;2022-12-19T00:03:11;36.97;;;20.17;;
55684;SDS011;41883;49.544;8.646;2022-12-19T00:05:36;43.00;;;21.07;;
55684;SDS011;41883;49.544;8.646;2022-12-19T00:08:03;44.53;;;22.92;;
55684;SDS011;41883;49.544;8.646;2022-12-19T00:10:28;50.10;;;25.60;;
55684;SDS011;41883;49.544;8.646;2022-12-19T00:12:53;42.47;;;22.77;;
55684;SDS011;41883;49.544;8.646;2022-12-19T00:15:18;42.67;;;21.53;;
55684;SDS011;41883;49.544;8.646;2022-12-19T00:17:44;36.60;;;19.23;;
55684;SDS011;41883;49.544;8.646;2022-12-19T00:20:09;38.97;;;20.97;;
55684;SDS011;41883;49.544;8.646;2022-12-19T00:22:34;38.72;;;21.77;;
55684;SDS011;41883;49.544;8.646;2022-12-19T00:24:59;41.50;;;24.77;;
55684;SDS011;41883;49.544;8.646;2022-12-19T00:27:25;36.77;;;19.70;;
55684;SDS011;41883;49.544;8.646;2022-12-19T00:29:50;41.83;;;22.93;;
55684;SDS011;41883;49.544;8.646;2022-12-19T00:32:15;35.43;;;19.47;;
55684;SDS011;41883;49.544;8.646;2022-12-19T00:34:40;35.03;;;18.07;;
55684;SDS011;41883;49.544;8.646;2022-12-19T00:37:05;34.63;;;17.90;;
55684;SDS011;41883;49.544;8.646;2022-12-19T00:39:30;36.37;;;20.00;;
55684;SDS011;41883;49.544;8.646;2022-12-19T00:41:56;40.22;;;21.23;;
55684;SDS011;41883;49.544;8.646;2022-12-19T00:44:21;39.03;;;20.13;;
55684;SDS011;41883;49.544;8.646;2022-12-19T00:46:46;33.10;;;18.20;;
55684;SDS011;41883;49.544;8.646;2022-12-19T00:49:11;38.43;;;21.40;;
55684;SDS011;41883;49.544;8.646;2022-12-19T00:51:36;40.60;;;21.47;;
55684;SDS011;41883;49.544;8.646;2022-12-19T00:54:02;37.03;;;19.27;;
55684;SDS011;41883;49.544;8.646;2022-12-19T00:56:28;39.20;;;19.48;;
55684;SDS011;41883;49.544;8.646;2022-12-19T00:58:54;30.88;;;16.60;;
55684;SDS011;41883;49.544;8.646;2022-12-19T01:01:27;48.90;;;25.00;;
55684;SDS011;41883;49.544;8.646;2022-12-19T01:03:52;54.08;;;27.50;;
55684;SDS011;41883;49.544;8.646;2022-12-19T01:06:18;49.90;;;27.73;;
55684;SDS011;41883;49.544;8.646;2022-12-19T01:08:43;50.43;;;25.80;;
55684;SDS011;41883;49.544;8.646;2022-12-19T01:11:09;48.40;;;24.77;;
55684;SDS011;41883;49.544;8.646;2022-12-19T01:13:35;42.85;;;22.38;;
55684;SDS011;41883;49.544;8.646;2022-12-19T01:16:01;35.90;;;20.05;;
55684;SDS011;41883;49.544;8.646;2022-12-19T01:18:26;40.67;;;20.77;;
55684;SDS011;41883;49.544;8.646;2022-12-19T01:20:51;50.43;;;24.57;;
55684;SDS011;41883;49.544;8.646;2022-12-19T01:23:17;50.53;;;26.33;;
55684;SDS011;41883;49.544;8.646;2022-12-19T01:25:42;48.42;;;26.35;;
55684;SDS011;41883;49.544;8.646;2022-12-19T01:28:12;47.45;;;25.50;;
55684;SDS011;41883;49.544;8.646;2022-12-19T01:30:38;44.35;;;24.83;;
55684;SDS011;41883;49.544;8.646;2022-12-19T01:33:03;43.45;;;22.10;;
55684;SDS011;41883;49.544;8.646;2022-12-19T01:35:29;50.97;;;25.83;;
55684;SDS011;41883;49.544;8.646;2022-12-19T01:37:54;49.50;;;24.50;;
55684;SDS011;41883;49.544;8.646;2022-12-19T01:40:20;65.80;;;31.03;;
55684;SDS011;41883;49.544;8.646;2022-12-19T01:42:45;62.03;;;30.58;;
55684;SDS011;41883;49.544;8.646;2022-12-19T01:45:18;64.57;;;32.13;;
55684;SDS011;41883;49.544;8.646;2022-12-19T01:47:48;62.25;;;30.02;;
55684;SDS011;41883;49.544;8.646;2022-12-19T01:50:19;57.72;;;27.45;;
55684;SDS011;41883;49.544;8.646;2022-12-19T01:52:44;46.38;;;25.23;;
55684;SDS011;41883;49.544;8.646;2022-12-19T01:55:10;51.53;;;28.27;;
55684;SDS011;41883;49.544;8.646;2022-12-19T01:57:35;57.08;;;29.27;;
55684;SDS011;41883;49.544;8.646;2022-12-19T02:00:01;59.38;;;29.77;;
55684;SDS011;41883;49.544;8.646;2022-12-19T02:02:30;55.08;;;28.55;;
55684;SDS011;41883;49.544;8.646;2022-12-19T02:04:57;62.08;;;32.75;;
55684;SDS011;41883;49.544;8.646;2022-12-19T02:07:22;60.38;;;31.42;;
55684;SDS011;41883;49.544;8.646;2022-12-19T02:09:50;59.90;;;31.17;;
55684;SDS011;41883;49.544;8.646;2022-12-19T02:12:16;54.90;;;27.08;;
55684;SDS011;41883;49.544;8.646;2022-12-19T02:14:41;53.23;;;27.50;;
55684;SDS011;41883;49.544;8.646;2022-12-19T02:25:00;58.65;;;30.27;;
55684;SDS011;41883;49.544;8.646;2022-12-19T02:27:46;52.20;;;26.80;;
55684;SDS011;41883;49.544;8.646;2022-12-19T02:30:15;47.85;;;26.63;;
55684;SDS011;41883;49.544;8.646;2022-12-19T02:35:22;55.28;;;28.63;;
55684;SDS011;41883;49.544;8.646;2022-12-19T02:40:25;47.05;;;24.55;;
55684;SDS011;41883;49.544;8.646;2022-12-19T02:42:59;46.53;;;24.27;;
55684;SDS011;41883;49.544;8.646;2022-12-19T02:45:34;39.90;;;20.65;;
55684;SDS011;41883;49.544;8.646;2022-12-19T02:48:00;55.92;;;29.45;;
55684;SDS011;41883;49.544;8.646;2022-12-19T02:50:34;49.78;;;26.27;;
55684;SDS011;41883;49.544;8.646;2022-12-19T02:52:59;49.20;;;25.95;;
55684;SDS011;41883;49.544;8.646;2022-12-19T02:55:24;46.37;;;23.97;;
55684;SDS011;41883;49.544;8.646;2022-12-19T02:58:09;42.47;;;22.30;;
55684;SDS011;41883;49.544;8.646;2022-12-19T03:00:49;41.42;;;21.40;;
55684;SDS011;41883;49.544;8.646;2022-12-19T03:03:20;43.28;;;22.60;;
55684;SDS011;41883;49.544;8.646;2022-12-19T03:06:03;42.22;;;21.60;;
55684;SDS011;41883;49.544;8.646;2022-12-19T03:11:24;43.42;;;22.92;;
55684;SDS011;41883;49.544;8.646;2022-12-19T03:14:02;49.15;;;25.38;;
55684;SDS011;41883;49.544;8.646;2022-12-19T03:16:28;48.70;;;26.08;;
55684;SDS011;41883;49.544;8.646;2022-12-19T03:18:54;42.53;;;24.17;;
55684;SDS011;41883;49.544;8.646;2022-12-19T03:21:22;41.92;;;22.83;;
55684;SDS011;41883;49.544;8.646;2022-12-19T03:23:49;46.28;;;24.15;;
55684;SDS011;41883;49.544;8.646;2022-12-19T03:26:18;44.45;;;23.65;;
55684;SDS011;41883;49.544;8.646;2022-12-19T03:28:48;45.13;;;23.58;;
55684;SDS011;41883;49.544;8.646;2022-12-19T03:31:16;44.85;;;23.92;;
55684;SDS011;41883;49.544;8.646;2022-12-19T03:33:43;42.45;;;21.65;;
55684;SDS011;41883;49.544;8.646;2022-12-19T03:36:10;38.85;;;21.13;;
55684;SDS011;41883;49.544;8.646;2022-12-19T03:38:36;34.65;;;18.73;;
55684;SDS011;41883;49.544;8.646;2022-12-19T03:41:03;30.63;;;16.40;;
55684;SDS011;41883;49.544;8.646;2022-12-19T03:48:32;50.75;;;25.42;;
55684;SDS011;41883;49.544;8.646;2022-12-19T03:58:39;38.10;;;20.27;;
55684;SDS011;41883;49.544;8.646;2022-12-19T04:01:06;33.88;;;17.02;;
55684;SDS011;41883;49.544;8.646;2022-12-19T04:03:32;30.13;;;17.42;;
55684;SDS011;41883;49.544;8.646;2022-12-19T04:05:57;45.53;;;24.63;;
55684;SDS011;41883;49.544;8.646;2022-12-19T04:08:23;45.28;;;25.05;;
55684;SDS011;41883;49.544;8.646;2022-12-19T04:10:50;39.85;;;22.33;;
55684;SDS011;41883;49.544;8.646;2022-12-19T04:13:17;45.80;;;23.75;;
55684;SDS011;41883;49.544;8.646;2022-12-19T04:15:59;50.72;;;25.85;;
55684;SDS011;41883;49.544;8.646;2022-12-19T04:18:27;46.25;;;24.50;;
55684;SDS011;41883;49.544;8.646;2022-12-19T04:21:12;45.95;;;24.50;;
55684;SDS011;41883;49.544;8.646;2022-12-19T04:23:40;54.05;;;27.95;;
55684;SDS011;41883;49.544;8.646;2022-12-19T04:26:11;46.33;;;24.75;;
55684;SDS011;41883;49.544;8.646;2022-12-19T04:28:40;38.83;;;20.55;;
55684;SDS011;41883;49.544;8.646;2022-12-19T04:31:08;43.17;;;22.02;;
55684;SDS011;41883;49.544;8.646;2022-12-19T04:33:34;44.92;;;24.02;;
55684;SDS011;41883;49.544;8.646;2022-12-19T04:35:59;37.40;;;21.07;;
55684;SDS011;41883;49.544;8.646;2022-12-19T04:38:25;31.93;;;17.60;;
55684;SDS011;41883;49.544;8.646;2022-12-19T04:40:50;32.03;;;20.17;;
55684;SDS011;41883;49.544;8.646;2022-12-19T04:43:16;31.87;;;20.03;;
55684;SDS011;41883;49.544;8.646;2022-12-19T04:45:41;30.08;;;16.88;;
55684;SDS011;41883;49.544;8.646;2022-12-19T04:48:06;31.88;;;18.73;;
55684;SDS011;41883;49.544;8.646;2022-12-19T04:50:32;34.77;;;18.80;;
55684;SDS011;41883;49.544;8.646;2022-12-19T04:52:57;39.65;;;20.63;;
55684;SDS011;41883;49.544;8.646;2022-12-19T04:55:22;33.87;;;18.53;;
55684;SDS011;41883;49.544;8.646;2022-12-19T04:57:47;31.92;;;17.25;;
55684;SDS011;41883;49.544;8.646;2022-12-19T05:00:13;29.33;;;16.07;;
55684;SDS011;41883;49.544;8.646;2022-12-19T05:02:38;29.58;;;15.85;;
55684;SDS011;41883;49.544;8.646;2022-12-19T05:05:03;32.28;;;16.67;;
55684;SDS011;41883;49.544;8.646;2022-12-19T05:07:29;28.58;;;14.85;;
55684;SDS011;41883;49.544;8.646;2022-12-19T05:12:19;29.67;;;15.65;;
55684;SDS011;41883;49.544;8.646;2022-12-19T05:14:44;30.67;;;16.73;;
55684;SDS011;41883;49.544;8.646;2022-12-19T05:17:09;33.37;;;16.67;;
55684;SDS011;41883;49.544;8.646;2022-12-19T05:19:34;28.57;;;15.97;;
55684;SDS011;41883;49.544;8.646;2022-12-19T05:22:00;36.92;;;19.55;;
55684;SDS011;41883;49.544;8.646;2022-12-19T05:24:25;39.20;;;20.17;;
55684;SDS011;41883;49.544;8.646;2022-12-19T05:26:50;35.37;;;19.20;;
55684;SDS011;41883;49.544;8.646;2022-12-19T05:29:15;33.63;;;16.83;;
55684;SDS011;41883;49.544;8.646;2022-12-19T05:31:41;30.70;;;16.58;;
55684;SDS011;41883;49.544;8.646;2022-12-19T05:36:31;31.55;;;16.50;;
55684;SDS011;41883;49.544;8.646;2022-12-19T05:38:56;34.87;;;17.20;;
55684;SDS011;41883;49.544;8.646;2022-12-19T05:41:21;33.60;;;16.97;;
55684;SDS011;41883;49.544;8.646;2022-12-19T05:43:53;31.03;;;16.10;;
55684;SDS011;41883;49.544;8.646;2022-12-19T05:46:19;27.63;;;14.73;;
55684;SDS011;41883;49.544;8.646;2022-12-19T05:48:44;35.13;;;21.30;;
55684;SDS011;41883;49.544;8.646;2022-12-19T05:51:10;36.92;;;19.00;;
55684;SDS011;41883;49.544;8.646;2022-12-19T05:53:35;36.07;;;22.03;;
55684;SDS011;41883;49.544;8.646;2022-12-19T05:56:04;30.35;;;19.10;;
55684;SDS011;41883;49.544;8.646;2022-12-19T05:58:30;38.15;;;19.52;;
55684;SDS011;41883;49.544;8.646;2022-12-19T06:00:59;36.72;;;20.45;;
55684;SDS011;41883;49.544;8.646;2022-12-19T06:03:24;38.20;;;19.63;;
55684;SDS011;41883;49.544;8.646;2022-12-19T06:05:50;36.10;;;18.87;;
55684;SDS011;41883;49.544;8.646;2022-12-19T06:08:15;34.27;;;17.67;;
55684;SDS011;41883;49.544;8.646;2022-12-19T06:10:40;30.67;;;16.10;;
55684;SDS011;41883;49.544;8.646;2022-12-19T06:13:05;28.90;;;16.20;;
55684;SDS011;41883;49.544;8.646;2022-12-19T06:15:30;31.00;;;16.43;;
55684;SDS011;41883;49.544;8.646;2022-12-19T06:17:56;36.17;;;17.90;;
55684;SDS011;41883;49.544;8.646;2022-12-19T06:20:21;37.53;;;19.65;;
55684;SDS011;41883;49.544;8.646;2022-12-19T06:22:46;38.03;;;17.97;;
55684;SDS011;41883;49.544;8.646;2022-12-19T06:25:14;33.43;;;17.80;;
55684;SDS011;41883;49.544;8.646;2022-12-19T06:27:40;30.25;;;16.05;;
55684;SDS011;41883;49.544;8.646;2022-12-19T06:30:05;35.27;;;18.70;;
55684;SDS011;41883;49.544;8.646;2022-12-19T06:32:30;31.73;;;17.40;;
55684;SDS011;41883;49.544;8.646;2022-12-19T06:34:57;31.73;;;16.70;;
55684;SDS011;41883;49.544;8.646;2022-12-19T06:37:22;36.80;;;18.05;;
55684;SDS011;41883;49.544;8.646;2022-12-19T06:39:49;29.37;;;15.30;;
55684;SDS011;41883;49.544;8.646;2022-12-19T06:42:14;32.63;;;16.25;;
55684;SDS011;41883;49.544;8.646;2022-12-19T06:44:49;36.40;;;18.38;;
55684;SDS011;41883;49.544;8.646;2022-12-19T06:47:14;39.63;;;18.77;;
55684;SDS011;41883;49.544;8.646;2022-12-19T06:49:54;36.65;;;18.33;;
55684;SDS011;41883;49.544;8.646;2022-12-19T06:52:19;32.03;;;16.70;;
55684;SDS011;41883;49.544;8.646;2022-12-19T06:54:45;29.43;;;15.17;;
55684;SDS011;41883;49.544;8.646;2022-12-19T06:57:10;26.90;;;15.07;;
55684;SDS011;41883;49.544;8.646;2022-12-19T06:59:35;34.20;;;17.67;;
55684;SDS011;41883;49.544;8.646;2022-12-19T07:02:07;28.60;;;15.17;;
55684;SDS011;41883;49.544;8.646;2022-12-19T07:04:46;32.00;;;16.45;;
55684;SDS011;41883;49.544;8.646;2022-12-19T07:07:12;36.78;;;19.48;;
55684;SDS011;41883;49.544;8.646;2022-12-19T07:09:46;39.00;;;20.43;;
55684;SDS011;41883;49.544;8.646;2022-12-19T07:12:14;46.22;;;22.88;;
55684;SDS011;41883;49.544;8.646;2022-12-19T07:14:39;42.77;;;22.30;;
55684;SDS011;41883;49.544;8.646;2022-12-19T07:17:04;45.33;;;22.40;;
55684;SDS011;41883;49.544;8.646;2022-12-19T07:19:30;40.47;;;20.77;;
55684;SDS011;41883;49.544;8.646;2022-12-19T07:21:56;41.97;;;21.58;;
55684;SDS011;41883;49.544;8.646;2022-12-19T07:24:25;40.08;;;20.92;;
55684;SDS011;41883;49.544;8.646;2022-12-19T07:26:51;39.63;;;19.60;;
55684;SDS011;41883;49.544;8.646;2022-12-19T07:29:18;32.30;;;16.65;;
55684;SDS011;41883;49.544;8.646;2022-12-19T07:31:47;29.55;;;15.70;;
55684;SDS011;41883;49.544;8.646;2022-12-19T07:34:12;27.95;;;14.00;;
55684;SDS011;41883;49.544;8.646;2022-12-19T07:36:37;30.60;;;14.98;;
55684;SDS011;41883;49.544;8.646;2022-12-19T07:39:02;30.60;;;15.90;;
55684;SDS011;41883;49.544;8.646;2022-12-19T07:41:31;26.70;;;13.98;;
55684;SDS011;41883;49.544;8.646;2022-12-19T08:35:06;27.00;;;14.23;;
55684;SDS011;41883;49.544;8.646;2022-12-19T08:37:31;26.20;;;14.05;;
55684;SDS011;41883;49.544;8.646;2022-12-19T08:39:56;23.27;;;12.90;;
55684;SDS011;41883;49.544;8.646;2022-12-19T08:42:22;35.23;;;18.90;;
55684;SDS011;41883;49.544;8.646;2022-12-19T08:44:47;38.67;;;20.17;;
55684;SDS011;41883;49.544;8.646;2022-12-19T08:47:13;36.50;;;19.20;;
55684;SDS011;41883;49.544;8.646;2022-12-19T08:49:38;35.72;;;19.00;;
55684;SDS011;41883;49.544;8.646;2022-12-19T08:52:04;41.30;;;21.92;;
55684;SDS011;41883;49.544;8.646;2022-12-19T08:54:29;36.70;;;20.07;;
55684;SDS011;41883;49.544;8.646;2022-12-19T08:56:54;36.53;;;19.63;;
55684;SDS011;41883;49.544;8.646;2022-12-19T08:59:19;35.57;;;19.00;;
55684;SDS011;41883;49.544;8.646;2022-12-19T09:01:45;35.72;;;18.85;;
55684;SDS011;41883;49.544;8.646;2022-12-19T09:04:10;34.70;;;19.52;;
55684;SDS011;41883;49.544;8.646;2022-12-19T09:06:35;34.40;;;18.13;;
55684;SDS011;41883;49.544;8.646;2022-12-19T09:09:02;33.97;;;19.57;;
55684;SDS011;41883;49.544;8.646;2022-12-19T09:11:27;34.95;;;18.80;;
55684;SDS011;41883;49.544;8.646;2022-12-19T09:13:54;36.30;;;19.17;;
55684;SDS011;41883;49.544;8.646;2022-12-19T09:16:20;31.55;;;18.38;;
55684;SDS011;41883;49.544;8.646;2022-12-19T09:18:48;29.17;;;15.43;;
55684;SDS011;41883;49.544;8.646;2022-12-19T09:21:14;26.92;;;13.88;;
55684;SDS011;41883;49.544;8.646;2022-12-19T09:23:40;24.80;;;13.57;;
55684;SDS011;41883;49.544;8.646;2022-12-19T09:26:07;27.67;;;14.57;;
55684;SDS011;41883;49.544;8.646;2022-12-19T09:28:33;26.52;;;15.02;;
55684;SDS011;41883;49.544;8.646;2022-12-19T09:31:00;24.20;;;13.57;;
55684;SDS011;41883;49.544;8.646;2022-12-19T09:33:25;27.90;;;15.48;;
55684;SDS011;41883;49.544;8.646;2022-12-19T09:35:51;29.25;;;15.55;;
55684;SDS011;41883;49.544;8.646;2022-12-19T09:38:17;29.33;;;15.82;;
55684;SDS011;41883;49.544;8.646;2022-12-19T09:46:00;36.65;;;18.80;;
55684;SDS011;41883;49.544;8.646;2022-12-19T09:48:27;33.30;;;18.17;;
55684;SDS011;41883;49.544;8.646;2022-12-19T09:50:57;30.63;;;17.43;;
55684;SDS011;41883;49.544;8.646;2022-12-19T09:53:35;34.28;;;18.38;;
55684;SDS011;41883;49.544;8.646;2022-12-19T09:56:03;32.83;;;18.05;;
55684;SDS011;41883;49.544;8.646;2022-12-19T09:58:34;33.85;;;17.02;;
55684;SDS011;41883;49.544;8.646;2022-12-19T10:01:01;31.45;;;16.77;;
55684;SDS011;41883;49.544;8.646;2022-12-19T10:03:29;33.75;;;18.75;;
55684;SDS011;41883;49.544;8.646;2022-12-19T10:06:38;37.72;;;19.42;;
55684;SDS011;41883;49.544;8.646;2022-12-19T10:08:44;37.08;;;20.48;;
55684;SDS011;41883;49.544;8.646;2022-12-19T10:18:39;32.87;;;18.60;;
55684;SDS011;41883;49.544;8.646;2022-12-19T10:21:08;32.50;;;19.60;;
55684;SDS011;41883;49.544;8.646;2022-12-19T10:23:48;37.53;;;20.20;;
55684;SDS011;41883;49.544;8.646;2022-12-19T10:26:20;36.80;;;20.27;;
55684;SDS011;41883;49.544;8.646;2022-12-19T10:29:33;36.78;;;19.77;;
55684;SDS011;41883;49.544;8.646;2022-12-19T10:34:18;34.43;;;19.20;;
55684;SDS011;41883;49.544;8.646;2022-12-19T10:36:44;33.00;;;19.13;;
55684;SDS011;41883;49.544;8.646;2022-12-19T10:39:29;32.47;;;16.75;;
55684;SDS011;41883;49.544;8.646;2022-12-19T10:41:57;27.52;;;15.60;;
55684;SDS011;41883;49.544;8.646;2022-12-19T10:44:25;24.88;;;14.10;;
55684;SDS011;41883;49.544;8.646;2022-12-19T10:46:52;26.48;;;15.13;;
55684;SDS011;41883;49.544;8.646;2022-12-19T10:54:23;26.55;;;14.85;;
55684;SDS011;41883;49.544;8.646;2022-12-19T10:56:48;24.23;;;14.40;;
55684;SDS011;41883;49.544;8.646;2022-12-19T10:59:14;38.33;;;19.23;;
55684;SDS011;41883;49.544;8.646;2022-12-19T11:01:40;33.58;;;18.88;;
55684;SDS011;41883;49.544;8.646;2022-12-19T11:09:41;29.25;;;14.93;;
55684;SDS011;41883;49.544;8.646;2022-12-19T11:14:33;23.40;;;13.30;;
55684;SDS011;41883;49.544;8.646;2022-12-19T11:16:59;23.30;;;14.23;;
55684;SDS011;41883;49.544;8.646;2022-12-19T11:19:26;24.52;;;13.88;;
55684;SDS011;41883;49.544;8.646;2022-12-19T11:21:51;23.25;;;13.60;;
55684;SDS011;41883;49.544;8.646;2022-12-19T11:24:22;20.90;;;11.73;;
55684;SDS011;41883;49.544;8.646;2022-12-19T11:26:49;19.65;;;11.45;;
55684;SDS011;41883;49.544;8.646;2022-12-19T11:31:40;26.40;;;14.60;;
55684;SDS011;41883;49.544;8.646;2022-12-19T11:34:05;31.65;;;16.48;;
55684;SDS011;41883;49.544;8.646;2022-12-19T11:39:07;36.10;;;19.65;;
55684;SDS011;41883;49.544;8.646;2022-12-19T11:41:48;39.92;;;20.20;;
55684;SDS011;41883;49.544;8.646;2022-12-19T11:49:34;34.50;;;19.70;;
55684;SDS011;41883;49.544;8.646;2022-12-19T11:52:22;29.63;;;16.23;;
55684;SDS011;41883;49.544;8.646;2022-12-19T11:54:55;29.20;;;17.85;;
55684;SDS011;41883;49.544;8.646;2022-12-19T11:57:21;32.50;;;17.98;;
55684;SDS011;41883;49.544;8.646;2022-12-19T11:59:47;31.40;;;17.50;;
55684;SDS011;41883;49.544;8.646;2022-12-19T12:07:23;27.73;;;16.52;;
55684;SDS011;41883;49.544;8.646;2022-12-19T12:10:09;29.02;;;16.98;;
55684;SDS011;41883;49.544;8.646;2022-12-19T12:18:28;25.58;;;15.32;;
55684;SDS011;41883;49.544;8.646;2022-12-19T12:23:56;30.40;;;17.35;;
55684;SDS011;41883;49.544;8.646;2022-12-19T12:26:30;32.97;;;17.88;;
55684;SDS011;41883;49.544;8.646;2022-12-19T12:29:02;28.80;;;16.13;;
55684;SDS011;41883;49.544;8.646;2022-12-19T12:45:30;30.67;;;17.80;;
55684;SDS011;41883;49.544;8.646;2022-12-19T12:48:02;26.50;;;16.08;;
55684;SDS011;41883;49.544;8.646;2022-12-19T12:50:31;25.15;;;16.17;;
55684;SDS011;41883;49.544;8.646;2022-12-19T12:52:58;23.05;;;15.48;;
55684;SDS011;41883;49.544;8.646;2022-12-19T12:55:37;28.65;;;18.33;;
55684;SDS011;41883;49.544;8.646;2022-12-19T13:01:17;28.02;;;16.98;;
55684;SDS011;41883;49.544;8.646;2022-12-19T13:03:57;30.80;;;17.33;;
55684;SDS011;41883;49.544;8.646;2022-12-19T13:17:01;32.90;;;18.58;;
55684;SDS011;41883;49.544;8.646;2022-12-19T13:19:28;31.52;;;19.55;;
55684;SDS011;41883;49.544;8.646;2022-12-19T13:24:38;31.45;;;18.65;;
55684;SDS011;41883;49.544;8.646;2022-12-19T13:27:13;31.30;;;17.80;;
55684;SDS011;41883;49.544;8.646;2022-12-19T13:29:53;33.42;;;18.45;;
55684;SDS011;41883;49.544;8.646;2022-12-19T13:32:21;34.97;;;19.88;;
55684;SDS011;41883;49.544;8.646;2022-12-19T13:34:50;29.95;;;17.50;;
55684;SDS011;41883;49.544;8.646;2022-12-19T13:42:16;30.17;;;16.98;;
55684;SDS011;41883;49.544;8.646;2022-12-19T13:45:48;28.95;;;17.17;;
55684;SDS011;41883;49.544;8.646;2022-12-19T13:47:54;25.50;;;14.93;;
55684;SDS011;41883;49.544;8.646;2022-12-19T13:50:28;28.50;;;16.33;;
55684;SDS011;41883;49.544;8.646;2022-12-19T13:52:54;34.38;;;19.23;;
55684;SDS011;41883;49.544;8.646;2022-12-19T13:55:19;36.42;;;19.63;;
55684;SDS011;41883;49.544;8.646;2022-12-19T13:57:50;33.77;;;19.37;;
55684;SDS011;41883;49.544;8.646;2022-12-19T14:00:17;32.63;;;18.60;;
55684;SDS011;41883;49.544;8.646;2022-12-19T14:02:47;28.70;;;17.15;;
55684;SDS011;41883;49.544;8.646;2022-12-19T14:05:18;28.65;;;16.70;;
55684;SDS011;41883;49.544;8.646;2022-12-19T14:07:45;30.80;;;17.27;;
55684;SDS011;41883;49.544;8.646;2022-12-19T14:10:15;28.08;;;16.60;;
55684;SDS011;41883;49.544;8.646;2022-12-19T14:12:41;28.30;;;16.25;;
55684;SDS011;41883;49.544;8.646;2022-12-19T14:20:23;31.58;;;17.05;;
55684;SDS011;41883;49.544;8.646;2022-12-19T14:22:49;28.38;;;16.45;;
55684;SDS011;41883;49.544;8.646;2022-12-19T14:25:14;29.63;;;16.37;;
55684;SDS011;41883;49.544;8.646;2022-12-19T14:27:40;28.38;;;17.42;;
55684;SDS011;41883;49.544;8.646;2022-12-19T14:30:14;27.67;;;16.13;;
55684;SDS011;41883;49.544;8.646;2022-12-19T14:32:40;27.48;;;15.75;;
55684;SDS011;41883;49.544;8.646;2022-12-19T14:35:07;28.95;;;17.05;;
55684;SDS011;41883;49.544;8.646;2022-12-19T14:37:36;27.35;;;16.58;;
55684;SDS011;41883;49.544;8.646;2022-12-19T14:40:07;27.42;;;15.70;;
55684;SDS011;41883;49.544;8.646;2022-12-19T14:42:38;28.10;;;16.55;;
55684;SDS011;41883;49.544;8.646;2022-12-19T14:47:56;28.80;;;16.52;;
55684;SDS011;41883;49.544;8.646;2022-12-19T14:52:50;30.98;;;17.80;;
55684;SDS011;41883;49.544;8.646;2022-12-19T14:55:30;33.72;;;18.63;;
55684;SDS011;41883;49.544;8.646;2022-12-19T14:57:56;26.92;;;15.85;;
55684;SDS011;41883;49.544;8.646;2022-12-19T15:00:28;27.70;;;15.82;;
55684;SDS011;41883;49.544;8.646;2022-12-19T15:02:54;27.08;;;15.75;;
55684;SDS011;41883;49.544;8.646;2022-12-19T15:05:20;24.23;;;14.38;;
55684;SDS011;41883;49.544;8.646;2022-12-19T15:07:46;26.77;;;14.73;;
55684;SDS011;41883;49.544;8.646;2022-12-19T15:15:41;21.33;;;12.20;;
55684;SDS011;41883;49.544;8.646;2022-12-19T15:18:37;25.27;;;14.15;;
55684;SDS011;41883;49.544;8.646;2022-12-19T15:21:10;34.05;;;18.52;;
55684;SDS011;41883;49.544;8.646;2022-12-19T15:23:36;32.10;;;17.67;;
55684;SDS011;41883;49.544;8.646;2022-12-19T15:26:02;29.42;;;17.65;;
55684;SDS011;41883;49.544;8.646;2022-12-19T15:31:09;26.92;;;15.48;;
55684;SDS011;41883;49.544;8.646;2022-12-19T15:33:37;28.90;;;17.42;;
55684;SDS011;41883;49.544;8.646;2022-12-19T15:36:02;29.17;;;16.45;;
55684;SDS011;41883;49.544;8.646;2022-12-19T15:38:28;23.25;;;14.10;;
55684;SDS011;41883;49.544;8.646;2022-12-19T15:40:53;26.77;;;15.23;;
55684;SDS011;41883;49.544;8.646;2022-12-19T15:43:20;22.53;;;13.40;;
55684;SDS011;41883;49.544;8.646;2022-12-19T15:45:47;21.05;;;12.88;;
55684;SDS011;41883;49.544;8.646;2022-12-19T15:48:14;29.50;;;16.17;;
55684;SDS011;41883;49.544;8.646;2022-12-19T15:50:40;29.00;;;17.15;;
55684;SDS011;41883;49.544;8.646;2022-12-19T15:53:14;28.63;;;14.73;;
55684;SDS011;41883;49.544;8.646;2022-12-19T15:55:41;25.60;;;14.70;;
55684;SDS011;41883;49.544;8.646;2022-12-19T16:00:34;23.50;;;13.38;;
55684;SDS011;41883;49.544;8.646;2022-12-19T16:03:00;22.00;;;13.40;;
55684;SDS011;41883;49.544;8.646;2022-12-19T16:05:25;22.77;;;13.50;;
55684;SDS011;41883;49.544;8.646;2022-12-19T16:07:52;29.30;;;17.05;;
55684;SDS011;41883;49.544;8.646;2022-12-19T16:10:18;29.80;;;16.27;;
55684;SDS011;41883;49.544;8.646;2022-12-19T16:12:44;26.85;;;15.80;;
55684;SDS011;41883;49.544;8.646;2022-12-19T16:15:13;25.58;;;14.77;;
55684;SDS011;41883;49.544;8.646;2022-12-19T16:17:38;28.52;;;17.15;;
55684;SDS011;41883;49.544;8.646;2022-12-19T16:20:12;32.67;;;19.13;;
55684;SDS011;41883;49.544;8.646;2022-12-19T16:22:38;31.42;;;18.52;;
55684;SDS011;41883;49.544;8.646;2022-12-19T16:25:03;37.27;;;21.80;;
55684;SDS011;41883;49.544;8.646;2022-12-19T16:27:29;32.33;;;18.95;;
55684;SDS011;41883;49.544;8.646;2022-12-19T16:29:55;25.33;;;16.25;;
55684;SDS011;41883;49.544;8.646;2022-12-19T16:32:21;33.58;;;19.17;;
55684;SDS011;41883;49.544;8.646;2022-12-19T16:34:48;29.58;;;17.63;;
55684;SDS011;41883;49.544;8.646;2022-12-19T16:37:13;29.45;;;18.30;;
55684;SDS011;41883;49.544;8.646;2022-12-19T16:39:38;30.10;;;18.50;;
55684;SDS011;41883;49.544;8.646;2022-12-19T16:42:03;28.87;;;16.80;;
55684;SDS011;41883;49.544;8.646;2022-12-19T16:44:29;26.38;;;15.63;;
55684;SDS011;41883;49.544;8.646;2022-12-19T16:46:55;21.38;;;13.10;;
55684;SDS011;41883;49.544;8.646;2022-12-19T16:49:21;28.33;;;16.17;;
55684;SDS011;41883;49.544;8.646;2022-12-19T16:51:49;27.02;;;16.08;;
55684;SDS011;41883;49.544;8.646;2022-12-19T16:54:15;27.35;;;16.67;;
55684;SDS011;41883;49.544;8.646;2022-12-19T16:56:42;28.55;;;17.20;;
55684;SDS011;41883;49.544;8.646;2022-12-19T16:59:14;27.85;;;15.95;;
55684;SDS011;41883;49.544;8.646;2022-12-19T17:01:44;24.00;;;14.93;;
55684;SDS011;41883;49.544;8.646;2022-12-19T17:04:16;28.23;;;16.05;;
55684;SDS011;41883;49.544;8.646;2022-12-19T17:06:42;31.67;;;17.75;;
55684;SDS011;41883;49.544;8.646;2022-12-19T17:09:08;31.92;;;17.13;;
55684;SDS011;41883;49.544;8.646;2022-12-19T17:11:37;33.58;;;18.65;;
55684;SDS011;41883;49.544;8.646;2022-12-19T17:14:03;31.95;;;18.30;;
55684;SDS011;41883;49.544;8.646;2022-12-19T17:18:54;34.83;;;18.70;;
55684;SDS011;41883;49.544;8.646;2022-12-19T17:21:21;32.05;;;18.30;;
55684;SDS011;41883;49.544;8.646;2022-12-19T17:23:47;30.17;;;18.47;;
55684;SDS011;41883;49.544;8.646;2022-12-19T17:26:12;34.42;;;18.98;;
55684;SDS011;41883;49.544;8.646;2022-12-19T17:28:38;34.75;;;19.45;;
55684;SDS011;41883;49.544;8.646;2022-12-19T17:31:10;31.83;;;19.05;;
55684;SDS011;41883;49.544;8.646;2022-12-19T17:33:37;34.53;;;19.10;;
55684;SDS011;41883;49.544;8.646;2022-12-19T17:36:04;30.73;;;17.83;;
55684;SDS011;41883;49.544;8.646;2022-12-19T17:38:29;31.88;;;18.92;;
55684;SDS011;41883;49.544;8.646;2022-12-19T17:40:54;33.40;;;19.80;;